createdAt,value
2023-05-04T00:00:01.466Z,73.16
2023-05-04T00:01:01.387Z,72.96
2023-05-04T00:02:01.364Z,75.71
2023-05-04T00:03:01.476Z,74.99
2023-05-04T00:04:01.490Z,74.38
2023-05-04T00:05:01.692Z,73.26
2023-05-04T00:06:01.326Z,72.45
2023-05-04T00:07:01.318Z,72.24
2023-05-04T00:08:01.320Z,72.34
2023-05-04T00:09:01.304Z,72.45
2023-05-04T00:10:01.382Z,72.45
2023-05-04T00:11:01.276Z,72.34
2023-05-04T00:12:01.280Z,72.55
2023-05-04T00:13:01.321Z,72.55
2023-05-04T00:14:01.261Z,72.75
2023-05-04T00:15:01.244Z,72.75
2023-05-04T00:16:01.296Z,72.55
2023-05-04T00:17:01.204Z,72.55
2023-05-04T00:18:01.303Z,72.55
2023-05-04T00:19:01.200Z,72.45
2023-05-04T00:20:01.212Z,72.45
2023-05-04T00:21:01.197Z,72.55
2023-05-04T00:22:01.179Z,72.55
2023-05-04T00:23:01.158Z,72.65
2023-05-04T00:24:01.140Z,72.96
2023-05-04T00:25:01.124Z,72.86
2023-05-04T00:26:01.108Z,72.86
2023-05-04T00:27:01.107Z,73.06
2023-05-04T00:28:01.115Z,72.96
2023-05-04T00:29:01.073Z,72.96
2023-05-04T00:30:01.091Z,72.96
2023-05-04T00:31:01.077Z,72.96
2023-05-04T00:32:01.217Z,72.86
2023-05-04T00:33:01.086Z,72.86
2023-05-04T00:34:01.037Z,72.89
2023-05-04T00:35:01.031Z,72.99
2023-05-04T00:36:01.017Z,73.10
2023-05-04T00:37:00.999Z,72.99
2023-05-04T00:38:00.993Z,73.19
2023-05-04T00:39:00.981Z,72.99
2023-05-04T00:40:00.959Z,72.99
2023-05-04T00:41:00.968Z,72.89
2023-05-04T00:42:00.937Z,73.19
2023-05-04T00:43:00.929Z,73.30
2023-05-04T00:44:00.909Z,73.50
2023-05-04T00:45:00.915Z,73.50
2023-05-04T00:46:00.904Z,73.81
2023-05-04T00:47:01.009Z,73.91
2023-05-04T00:48:01.021Z,74.32
2023-05-04T00:49:00.884Z,74.21
2023-05-04T00:50:00.844Z,74.32
2023-05-04T00:51:00.835Z,74.25
2023-05-04T00:52:00.842Z,74.35
2023-05-04T00:53:00.949Z,74.35
2023-05-04T00:54:00.809Z,74.55
2023-05-04T00:55:00.807Z,74.76
2023-05-04T00:56:00.787Z,74.76
2023-05-04T00:57:00.802Z,74.96
2023-05-04T00:58:00.771Z,75.16
2023-05-04T00:59:00.758Z,75.16
2023-05-04T01:00:00.769Z,74.96
2023-05-04T01:01:00.756Z,74.86
2023-05-04T01:02:00.764Z,75.07
2023-05-04T01:03:00.842Z,75.07
2023-05-04T01:04:00.797Z,75.27
2023-05-04T01:05:00.684Z,75.41
2023-05-04T01:06:00.692Z,75.41
2023-05-04T01:07:00.712Z,75.41
2023-05-04T01:08:00.669Z,75.31
2023-05-04T01:09:00.651Z,75.71
2023-05-04T01:10:00.643Z,75.61
2023-05-04T01:11:00.662Z,75.61
2023-05-04T01:12:00.635Z,75.71
2023-05-04T01:13:00.723Z,75.92
2023-05-04T01:14:00.614Z,76.12
2023-05-04T01:15:00.610Z,76.22
2023-05-04T01:16:00.596Z,76.43
2023-05-04T01:17:00.680Z,76.46
2023-05-04T01:18:00.600Z,76.46
2023-05-04T01:19:00.552Z,76.67
2023-05-04T01:20:00.568Z,76.87
2023-05-04T01:21:00.544Z,77.08
2023-05-04T01:22:00.539Z,77.08
2023-05-04T01:23:00.516Z,77.18
2023-05-04T01:24:00.504Z,77.18
2023-05-04T01:25:00.518Z,77.28
2023-05-04T01:26:00.503Z,77.38
2023-05-04T01:27:00.468Z,77.38
2023-05-04T01:28:00.476Z,77.28
2023-05-04T01:29:00.436Z,77.28
2023-05-04T01:30:00.449Z,77.28
2023-05-04T01:31:00.492Z,77.38
2023-05-04T01:32:00.416Z,77.52
2023-05-04T01:33:00.457Z,77.72
2023-05-04T01:34:00.384Z,77.72
2023-05-04T01:35:00.440Z,77.62
2023-05-04T01:36:00.529Z,77.72
2023-05-04T01:37:00.363Z,77.52
2023-05-04T01:38:00.365Z,77.52
2023-05-04T01:39:00.336Z,77.52
2023-05-04T01:40:00.317Z,77.62
2023-05-04T01:41:00.323Z,77.72
2023-05-04T01:42:00.356Z,77.72
2023-05-04T01:43:00.289Z,77.72
2023-05-04T01:44:00.291Z,77.93
2023-05-04T01:45:00.269Z,78.07
2023-05-04T01:46:00.284Z,78.17
2023-05-04T01:47:00.262Z,78.27
2023-05-04T01:48:00.321Z,78.27
2023-05-04T01:49:00.239Z,78.58
2023-05-04T01:50:00.210Z,78.68
2023-05-04T01:51:00.198Z,78.88
2023-05-04T01:52:00.197Z,78.78
2023-05-04T01:53:00.199Z,78.88
2023-05-04T01:54:00.205Z,78.99
2023-05-04T01:55:00.188Z,78.99
2023-05-04T01:56:00.150Z,79.09
2023-05-04T01:57:00.126Z,79.39
2023-05-04T01:58:00.205Z,79.33
2023-05-04T01:59:00.080Z,79.33
2023-05-04T02:00:00.086Z,79.23
2023-05-04T02:01:00.066Z,79.13
2023-05-04T02:02:00.248Z,79.02
2023-05-04T02:03:00.151Z,79.13
2023-05-04T02:04:00.258Z,79.43
2023-05-04T02:05:00.019Z,79.43
2023-05-04T02:06:00.009Z,79.53
2023-05-04T02:06:59.998Z,79.64
2023-05-04T02:07:59.996Z,79.53
2023-05-04T02:08:59.967Z,79.64
2023-05-04T02:09:59.965Z,79.74
2023-05-04T02:10:59.951Z,79.64
2023-05-04T02:12:00.894Z,80.08
2023-05-04T02:13:00.020Z,80.29
2023-05-04T02:13:59.917Z,80.39
2023-05-04T02:14:59.904Z,80.60
2023-05-04T02:15:59.959Z,80.80
2023-05-04T02:16:59.897Z,80.90
2023-05-04T02:17:59.900Z,81.01
2023-05-04T02:18:59.886Z,81.31
2023-05-04T02:19:59.879Z,81.31
2023-05-04T02:20:59.849Z,81.31
2023-05-04T02:21:59.834Z,81.31
2023-05-04T02:22:59.818Z,81.31
2023-05-04T02:23:59.812Z,81.31
2023-05-04T02:24:59.801Z,81.31
2023-05-04T02:25:59.798Z,81.21
2023-05-04T02:26:59.775Z,81.41
2023-05-04T02:27:59.771Z,81.65
2023-05-04T02:28:59.753Z,81.86
2023-05-04T02:29:59.748Z,81.76
2023-05-04T02:30:59.752Z,81.76
2023-05-04T02:31:59.807Z,81.65
2023-05-04T02:32:59.751Z,81.86
2023-05-04T02:33:59.720Z,81.96
2023-05-04T02:34:59.707Z,81.96
2023-05-04T02:35:59.709Z,81.86
2023-05-04T02:36:59.674Z,81.76
2023-05-04T02:37:59.656Z,81.65
2023-05-04T02:38:59.658Z,82.07
2023-05-04T02:39:59.649Z,81.86
2023-05-04T02:40:59.633Z,81.86
2023-05-04T02:41:59.622Z,82.07
2023-05-04T02:42:59.604Z,82.17
2023-05-04T02:43:59.613Z,82.07
2023-05-04T02:44:59.600Z,81.90
2023-05-04T02:45:59.633Z,82.00
2023-05-04T02:46:59.570Z,82.10
2023-05-04T02:47:59.612Z,82.21
2023-05-04T02:48:59.552Z,82.51
2023-05-04T02:49:59.533Z,82.82
2023-05-04T02:50:59.548Z,82.71
2023-05-04T02:51:59.528Z,83.03
2023-05-04T02:52:59.495Z,83.13
2023-05-04T02:53:59.506Z,83.13
2023-05-04T02:54:59.479Z,83.33
2023-05-04T02:55:59.490Z,83.47
2023-05-04T02:56:59.467Z,83.47
2023-05-04T02:57:59.460Z,83.17
2023-05-04T02:58:59.436Z,83.27
2023-05-04T02:59:59.444Z,83.17
2023-05-04T03:00:59.549Z,83.27
2023-05-04T03:01:59.411Z,83.37
2023-05-04T03:02:59.464Z,83.27
2023-05-04T03:03:59.428Z,83.17
2023-05-04T03:04:59.379Z,83.47
2023-05-04T03:05:59.363Z,83.98
2023-05-04T03:06:59.355Z,83.98
2023-05-04T03:07:59.349Z,84.19
2023-05-04T03:08:59.326Z,84.29
2023-05-04T03:09:59.333Z,84.29
2023-05-04T03:10:59.302Z,84.19
2023-05-04T03:11:59.307Z,84.50
2023-05-04T03:12:59.315Z,84.39
2023-05-04T03:13:59.292Z,84.74
2023-05-04T03:14:59.270Z,84.95
2023-05-04T03:15:59.281Z,85.05
2023-05-04T03:16:59.250Z,84.95
2023-05-04T03:17:59.263Z,85.05
2023-05-04T03:18:59.263Z,84.95
2023-05-04T03:19:59.226Z,84.74
2023-05-04T03:20:59.193Z,84.74
2023-05-04T03:21:59.185Z,84.74
2023-05-04T03:22:59.180Z,84.95
2023-05-04T03:23:59.168Z,85.15
2023-05-04T03:24:59.171Z,85.46
2023-05-04T03:25:59.151Z,85.36
2023-05-04T03:26:59.132Z,85.50
2023-05-04T03:27:59.116Z,85.60
2023-05-04T03:28:59.115Z,85.71
2023-05-04T03:29:59.105Z,85.50
2023-05-04T03:30:59.091Z,85.39
2023-05-04T03:31:59.152Z,85.50
2023-05-04T03:32:59.087Z,85.19
2023-05-04T03:33:59.057Z,85.50
2023-05-04T03:34:59.066Z,85.80
2023-05-04T03:35:59.056Z,85.71
2023-05-04T03:36:59.023Z,85.71
2023-05-04T03:37:59.020Z,85.71
2023-05-04T03:38:59.001Z,85.50
2023-05-04T03:39:58.997Z,85.30
2023-05-04T03:40:58.975Z,85.39
2023-05-04T03:41:58.976Z,85.60
2023-05-04T03:42:58.954Z,85.50
2023-05-04T03:43:58.947Z,85.60
2023-05-04T03:44:58.940Z,85.50
2023-05-04T03:45:58.997Z,85.39
2023-05-04T03:46:58.923Z,85.50
2023-05-04T03:47:58.939Z,86.11
2023-05-04T03:48:58.908Z,86.15
2023-05-04T03:49:58.895Z,86.15
2023-05-04T03:50:58.881Z,86.36
2023-05-04T03:51:58.866Z,86.66
2023-05-04T03:52:58.862Z,86.77
2023-05-04T03:53:58.840Z,86.66
2023-05-04T03:54:58.830Z,86.57
2023-05-04T03:55:58.819Z,86.25
2023-05-04T03:56:58.820Z,85.95
2023-05-04T03:57:58.798Z,85.95
2023-05-04T03:58:58.786Z,85.95
2023-05-04T03:59:58.771Z,86.05
2023-05-04T04:00:58.847Z,86.15
2023-05-04T04:01:58.893Z,86.05
2023-05-04T04:02:58.839Z,86.15
2023-05-04T04:03:58.866Z,86.05
2023-05-04T04:04:58.738Z,86.15
2023-05-04T04:05:58.712Z,86.36
2023-05-04T04:06:58.701Z,86.36
2023-05-04T04:07:58.707Z,86.25
2023-05-04T04:08:58.714Z,86.25
2023-05-04T04:09:59.956Z,86.36
2023-05-04T04:10:58.671Z,86.66
2023-05-04T04:11:58.650Z,86.66
2023-05-04T04:12:58.698Z,86.36
2023-05-04T04:13:58.625Z,86.25
2023-05-04T04:14:58.616Z,86.15
2023-05-04T04:15:58.646Z,86.66
2023-05-04T04:16:58.604Z,86.87
2023-05-04T04:17:58.634Z,87.18
2023-05-04T04:18:58.603Z,86.98
2023-05-04T04:19:58.555Z,86.98
2023-05-04T04:20:58.550Z,86.77
2023-05-04T04:21:58.535Z,86.66
2023-05-04T04:22:58.564Z,86.71
2023-05-04T04:23:58.527Z,86.66
2023-05-04T04:24:58.507Z,86.46
2023-05-04T04:25:59.155Z,86.46
2023-05-04T04:26:58.503Z,86.30
2023-05-04T04:27:58.492Z,86.40
2023-05-04T04:28:58.505Z,86.46
2023-05-04T04:29:58.452Z,86.71
2023-05-04T04:30:58.513Z,86.81
2023-05-04T04:31:58.453Z,87.02
2023-05-04T04:32:58.656Z,87.08
2023-05-04T04:33:58.484Z,87.28
2023-05-04T04:34:58.404Z,87.70
2023-05-04T04:35:58.389Z,87.94
2023-05-04T04:36:58.475Z,88.04
2023-05-04T04:37:58.424Z,88.24
2023-05-04T04:38:58.612Z,88.14
2023-05-04T04:39:58.523Z,87.94
2023-05-04T04:40:58.376Z,87.94
2023-05-04T04:41:58.348Z,87.84
2023-05-04T04:42:58.377Z,87.73
2023-05-04T04:43:58.344Z,87.53
2023-05-04T04:44:58.297Z,87.38
2023-05-04T04:45:58.275Z,87.43
2023-05-04T04:46:58.364Z,87.49
2023-05-04T04:47:58.282Z,87.49
2023-05-04T04:48:58.247Z,87.49
2023-05-04T04:49:58.270Z,87.59
2023-05-04T04:50:58.503Z,87.59
2023-05-04T04:51:58.215Z,87.38
2023-05-04T04:52:58.221Z,87.38
2023-05-04T04:53:58.196Z,87.59
2023-05-04T04:54:58.190Z,87.59
2023-05-04T04:55:58.195Z,87.49
2023-05-04T04:56:58.176Z,87.38
2023-05-04T04:57:58.148Z,87.28
2023-05-04T04:58:58.146Z,87.49
2023-05-04T04:59:58.130Z,87.38
2023-05-04T05:00:58.473Z,87.49
2023-05-04T05:01:58.128Z,87.38
2023-05-04T05:02:58.250Z,87.70
2023-05-04T05:03:58.117Z,88.00
2023-05-04T05:04:58.287Z,87.90
2023-05-04T05:05:58.099Z,88.10
2023-05-04T05:06:58.234Z,88.10
2023-05-04T05:07:58.140Z,88.00
2023-05-04T05:08:58.766Z,87.90
2023-05-04T05:09:58.150Z,87.79
2023-05-04T05:10:58.342Z,87.76
2023-05-04T05:11:58.007Z,87.70
2023-05-04T05:12:58.209Z,87.76
2023-05-04T05:13:58.057Z,87.76
2023-05-04T05:14:58.748Z,87.85
2023-05-04T05:15:58.027Z,88.06
2023-05-04T05:16:58.130Z,88.17
2023-05-04T05:17:58.009Z,88.17
2023-05-04T05:18:58.092Z,88.17
2023-05-04T05:19:57.980Z,88.37
2023-05-04T05:20:57.933Z,88.47
2023-05-04T05:21:58.013Z,88.47
2023-05-04T05:22:57.917Z,88.47
2023-05-04T05:23:57.891Z,88.47
2023-05-04T05:24:58.860Z,88.47
2023-05-04T05:25:59.104Z,88.47
2023-05-04T05:26:57.934Z,88.57
2023-05-04T05:27:57.840Z,88.47
2023-05-04T05:28:58.219Z,88.37
2023-05-04T05:29:57.878Z,88.23
2023-05-04T05:30:57.895Z,88.23
2023-05-04T05:31:57.828Z,88.33
2023-05-04T05:32:58.809Z,88.43
2023-05-04T05:33:57.800Z,88.33
2023-05-04T05:34:57.774Z,88.23
2023-05-04T05:35:57.817Z,88.02
2023-05-04T05:36:57.799Z,88.02
2023-05-04T05:37:57.776Z,88.02
2023-05-04T05:38:57.749Z,88.02
2023-05-04T05:39:57.777Z,88.02
2023-05-04T05:40:57.742Z,87.92
2023-05-04T05:41:57.774Z,88.02
2023-05-04T05:42:57.682Z,88.23
2023-05-04T05:43:57.672Z,88.23
2023-05-04T05:44:57.654Z,88.12
2023-05-04T05:45:57.662Z,87.88
2023-05-04T05:46:57.664Z,87.98
2023-05-04T05:47:57.645Z,88.08
2023-05-04T05:48:57.677Z,88.08
2023-05-04T05:49:57.677Z,87.88
2023-05-04T05:50:57.660Z,87.77
2023-05-04T05:51:57.590Z,87.88
2023-05-04T05:52:57.654Z,87.77
2023-05-04T05:53:57.636Z,87.88
2023-05-04T05:54:57.911Z,87.88
2023-05-04T05:55:57.607Z,87.98
2023-05-04T05:56:57.542Z,87.88
2023-05-04T05:57:57.521Z,87.88
2023-05-04T05:58:57.538Z,87.77
2023-05-04T05:59:57.501Z,87.67
2023-05-04T06:00:57.514Z,87.57
2023-05-04T06:01:59.221Z,87.57
2023-05-04T06:02:57.569Z,87.47
2023-05-04T06:03:57.661Z,87.47
2023-05-04T06:04:57.523Z,87.37
2023-05-04T06:05:57.440Z,87.37
2023-05-04T06:06:57.446Z,87.37
2023-05-04T06:07:57.452Z,87.26
2023-05-04T06:08:57.443Z,87.16
2023-05-04T06:09:57.466Z,87.32
2023-05-04T06:10:57.382Z,87.43
2023-05-04T06:11:57.365Z,87.32
2023-05-04T06:12:57.456Z,87.32
2023-05-04T06:13:57.336Z,87.43
2023-05-04T06:14:57.343Z,87.32
2023-05-04T06:15:57.629Z,87.43
2023-05-04T06:16:57.361Z,87.43
2023-05-04T06:17:57.359Z,87.32
2023-05-04T06:18:57.382Z,87.22
2023-05-04T06:19:57.319Z,87.22
2023-05-04T06:20:58.246Z,87.29
2023-05-04T06:21:57.270Z,87.29
2023-05-04T06:22:57.308Z,87.29
2023-05-04T06:23:57.225Z,87.29
2023-05-04T06:25:01.529Z,87.18
2023-05-04T06:25:58.255Z,87.18
2023-05-04T06:26:57.256Z,87.18
2023-05-04T06:27:57.210Z,87.08
2023-05-04T06:28:57.208Z,87.14
2023-05-04T06:29:57.189Z,87.35
2023-05-04T06:30:57.167Z,87.35
2023-05-04T06:31:57.240Z,87.65
2023-05-04T06:32:57.268Z,87.65
2023-05-04T06:33:57.157Z,87.76
2023-05-04T06:34:57.115Z,87.65
2023-05-04T06:35:57.098Z,87.76
2023-05-04T06:36:57.084Z,87.65
2023-05-04T06:37:57.170Z,87.65
2023-05-04T06:38:57.114Z,87.61
2023-05-04T06:39:57.095Z,87.61
2023-05-04T06:40:57.042Z,87.61
2023-05-04T06:41:57.117Z,87.51
2023-05-04T06:42:57.024Z,87.41
2023-05-04T06:43:58.771Z,87.67
2023-05-04T06:44:57.026Z,87.77
2023-05-04T06:45:57.037Z,87.67
2023-05-04T06:46:56.998Z,87.57
2023-05-04T06:47:57.007Z,87.23
2023-05-04T06:48:56.963Z,86.82
2023-05-04T06:49:56.962Z,86.51
2023-05-04T06:50:56.990Z,86.20
2023-05-04T06:51:56.961Z,85.96
2023-05-04T06:52:56.943Z,85.96
2023-05-04T06:53:56.913Z,85.86
2023-05-04T06:54:56.896Z,85.96
2023-05-04T06:55:56.943Z,85.96
2023-05-04T06:56:56.897Z,85.51
2023-05-04T06:57:56.871Z,85.41
2023-05-04T06:58:56.890Z,85.41
2023-05-04T06:59:56.836Z,85.06
2023-05-04T07:00:56.878Z,84.75
2023-05-04T07:01:57.844Z,84.75
2023-05-04T07:02:56.859Z,84.66
2023-05-04T07:03:58.061Z,84.55
2023-05-04T07:04:56.968Z,84.41
2023-05-04T07:05:57.845Z,84.20
2023-05-04T07:06:56.791Z,83.90
2023-05-04T07:07:57.481Z,83.70
2023-05-04T07:08:56.769Z,83.49
2023-05-04T07:09:56.807Z,83.39
2023-05-04T07:10:56.733Z,83.45
2023-05-04T07:11:57.444Z,83.56
2023-05-04T07:12:56.792Z,83.45
2023-05-04T07:13:57.467Z,83.56
2023-05-04T07:14:56.703Z,83.35
2023-05-04T07:15:56.717Z,82.60
2023-05-04T07:16:56.671Z,82.40
2023-05-04T07:17:56.815Z,82.60
2023-05-04T07:18:56.625Z,82.29
2023-05-04T07:19:57.688Z,81.88
2023-05-04T07:21:06.088Z,81.99
2023-05-04T07:21:57.594Z,81.85
2023-05-04T07:22:56.582Z,82.05
2023-05-04T07:23:56.572Z,81.85
2023-05-04T07:24:56.558Z,81.74
2023-05-04T07:25:56.584Z,81.54
2023-05-04T07:26:56.567Z,81.30
2023-05-04T07:27:56.534Z,80.99
2023-05-04T07:28:56.517Z,80.69
2023-05-04T07:29:56.505Z,80.90
2023-05-04T07:30:56.515Z,80.79
2023-05-04T07:31:56.503Z,80.59
2023-05-04T07:32:56.574Z,80.65
2023-05-04T07:33:56.450Z,80.65
2023-05-04T07:34:56.540Z,80.55
2023-05-04T07:35:56.462Z,80.45
2023-05-04T07:36:56.442Z,80.45
2023-05-04T07:37:57.437Z,80.11
2023-05-04T07:38:56.430Z,80.21
2023-05-04T07:39:56.393Z,80.31
2023-05-04T07:40:56.384Z,80.11
2023-05-04T07:41:56.386Z,79.60
2023-05-04T07:42:56.386Z,79.09
2023-05-04T07:43:57.103Z,79.05
2023-05-04T07:44:56.352Z,79.46
2023-05-04T07:45:57.823Z,79.56
2023-05-04T07:46:56.377Z,79.36
2023-05-04T07:47:57.107Z,79.36
2023-05-04T07:48:56.330Z,79.05
2023-05-04T07:49:57.034Z,78.85
2023-05-04T07:50:56.313Z,78.44
2023-05-04T07:51:56.534Z,78.34
2023-05-04T07:52:56.316Z,78.10
2023-05-04T07:53:56.377Z,78.00
2023-05-04T07:54:56.245Z,78.20
2023-05-04T07:55:56.960Z,78.81
2023-05-04T07:56:56.232Z,78.51
2023-05-04T07:57:56.421Z,78.17
2023-05-04T07:58:56.210Z,78.17
2023-05-04T07:59:56.924Z,77.66
2023-05-04T08:00:56.214Z,77.36
2023-05-04T08:01:56.937Z,77.22
2023-05-04T08:02:56.255Z,77.12
2023-05-04T08:03:57.203Z,76.51
2023-05-04T08:04:56.173Z,76.40
2023-05-04T08:05:56.862Z,75.90
2023-05-04T08:06:56.137Z,76.06
2023-05-04T08:07:56.246Z,75.66
2023-05-04T08:08:56.097Z,75.56
2023-05-04T08:09:56.212Z,75.35
2023-05-04T08:11:02.017Z,75.32
2023-05-04T08:11:57.087Z,75.32
2023-05-04T08:12:56.125Z,75.52
2023-05-04T08:13:57.065Z,75.62
2023-05-04T08:14:56.036Z,74.57
2023-05-04T08:15:57.054Z,73.97
2023-05-04T08:16:56.012Z,73.25
2023-05-04T08:17:56.048Z,72.75
2023-05-04T08:18:56.004Z,72.85
2023-05-04T08:19:56.001Z,72.96
2023-05-04T08:20:56.023Z,72.85
2023-05-04T08:21:56.004Z,73.36
2023-05-04T08:22:55.978Z,73.93
2023-05-04T08:23:55.940Z,73.63
2023-05-04T08:24:55.950Z,73.43
2023-05-04T08:25:55.905Z,73.02
2023-05-04T08:27:06.630Z,72.01
2023-05-04T08:27:56.920Z,71.91
2023-05-04T08:28:55.883Z,71.91
2023-05-04T08:29:55.879Z,72.21
2023-05-04T08:30:55.917Z,72.61
2023-05-04T08:31:56.023Z,71.97
2023-05-04T08:32:55.882Z,71.77
2023-05-04T08:33:55.874Z,71.97
2023-05-04T08:34:55.914Z,71.88
2023-05-04T08:35:55.803Z,71.23
2023-05-04T08:36:55.808Z,71.44
2023-05-04T08:37:55.826Z,71.23
2023-05-04T08:38:55.771Z,71.44
2023-05-04T08:39:55.861Z,71.03
2023-05-04T08:40:57.325Z,71.33
2023-05-04T08:41:55.808Z,71.53
2023-05-04T08:42:55.952Z,71.13
2023-05-04T08:43:55.734Z,71.50
2023-05-04T08:44:56.758Z,70.69
2023-05-04T08:45:55.834Z,70.29
2023-05-04T08:46:55.832Z,70.79
2023-05-04T08:47:56.099Z,70.59
2023-05-04T08:48:56.365Z,70.59
2023-05-04T08:49:55.674Z,69.98
2023-05-04T08:50:56.371Z,69.45
2023-05-04T08:51:55.661Z,69.04
2023-05-04T08:52:55.752Z,68.74
2023-05-04T08:53:55.751Z,68.74
2023-05-04T08:54:55.810Z,68.94
2023-05-04T08:55:55.684Z,69.34
2023-05-04T08:56:56.167Z,69.75
2023-05-04T08:57:55.584Z,69.82
2023-05-04T08:58:55.644Z,69.82
2023-05-04T08:59:55.744Z,68.40
2023-05-04T09:00:56.598Z,68.30
2023-05-04T09:01:55.613Z,68.77
2023-05-04T09:02:55.638Z,67.97
2023-05-04T09:03:55.706Z,67.06
2023-05-04T09:04:55.503Z,66.55
2023-05-04T09:05:55.503Z,66.45
2023-05-04T09:06:55.496Z,66.35
2023-05-04T09:07:55.504Z,66.65
2023-05-04T09:08:55.460Z,67.43
2023-05-04T09:09:55.447Z,65.71
2023-05-04T09:10:55.424Z,65.31
2023-05-04T09:11:55.457Z,64.70
2023-05-04T09:12:55.493Z,64.90
2023-05-04T09:13:55.433Z,65.28
2023-05-04T09:14:55.397Z,64.78
2023-05-04T09:15:55.473Z,64.67
2023-05-04T09:16:55.471Z,63.76
2023-05-04T09:18:55.426Z,63.03
2023-05-04T09:19:55.371Z,63.23
2023-05-04T09:20:55.450Z,64.04
2023-05-04T09:21:55.352Z,64.21
2023-05-04T09:22:55.344Z,62.90
2023-05-04T09:23:55.327Z,63.60
2023-05-04T09:24:55.261Z,63.20
2023-05-04T09:25:55.250Z,61.59
2023-05-04T09:26:55.249Z,60.68
2023-05-04T09:27:55.232Z,61.76
2023-05-04T09:28:55.224Z,60.15
2023-05-04T09:29:55.257Z,60.65
2023-05-04T09:30:55.245Z,60.45
2023-05-04T09:31:55.192Z,59.95
2023-05-04T09:32:55.241Z,59.22
2023-05-04T09:33:55.161Z,59.01
2023-05-04T09:34:55.154Z,59.72
2023-05-04T09:35:55.144Z,59.22
2023-05-04T09:36:55.138Z,58.91
2023-05-04T09:37:55.117Z,59.89
2023-05-04T09:38:55.105Z,58.07
2023-05-04T09:39:55.131Z,58.07
2023-05-04T09:40:55.086Z,57.37
2023-05-04T09:41:55.090Z,57.98
2023-05-04T09:42:55.063Z,57.48
2023-05-04T09:43:55.056Z,57.95
2023-05-04T09:44:55.046Z,57.65
2023-05-04T09:45:55.048Z,58.05
2023-05-04T09:46:55.026Z,58.05
2023-05-04T09:47:55.045Z,57.15
2023-05-04T09:48:55.007Z,57.75
2023-05-04T09:49:54.996Z,57.52
2023-05-04T09:50:55.020Z,57.02
2023-05-04T09:51:54.968Z,56.41
2023-05-04T09:52:54.967Z,55.51
2023-05-04T09:53:54.956Z,56.01
2023-05-04T09:54:54.953Z,56.71
2023-05-04T09:55:54.966Z,56.71
2023-05-04T09:56:54.943Z,56.59
2023-05-04T09:57:55.866Z,55.88
2023-05-04T09:58:54.899Z,56.29
2023-05-04T09:59:55.910Z,56.79
2023-05-04T10:00:54.890Z,56.19
2023-05-04T10:01:55.941Z,56.46
2023-05-04T10:02:54.925Z,55.35
2023-05-04T10:03:55.079Z,55.55
2023-05-04T10:04:54.831Z,55.86
2023-05-04T10:05:55.610Z,55.16
2023-05-04T10:06:54.826Z,55.63
2023-05-04T10:07:55.554Z,55.83
2023-05-04T10:08:54.803Z,56.23
2023-05-04T10:09:54.832Z,55.83
2023-05-04T10:10:54.771Z,54.43
2023-05-04T10:11:54.812Z,54.50
2023-05-04T10:12:54.815Z,55.00
2023-05-04T10:13:54.735Z,54.80
2023-05-04T10:14:54.719Z,54.60
2023-05-04T10:15:54.731Z,55.00
2023-05-04T10:16:54.705Z,54.68
2023-05-04T10:17:54.745Z,53.67
2023-05-04T10:18:54.678Z,53.97
2023-05-04T10:19:54.663Z,54.17
2023-05-04T10:20:54.651Z,54.17
2023-05-04T10:21:54.671Z,54.35
2023-05-04T10:22:54.627Z,54.25
2023-05-04T10:23:54.626Z,53.64
2023-05-04T10:24:54.609Z,52.12
2023-05-04T10:25:54.663Z,51.62
2023-05-04T10:26:54.610Z,51.01
2023-05-04T10:27:54.575Z,49.71
2023-05-04T10:28:54.605Z,49.91
2023-05-04T10:29:54.555Z,50.31
2023-05-04T10:30:54.542Z,50.92
2023-05-04T10:31:54.592Z,51.09
2023-05-04T10:32:54.617Z,50.09
2023-05-04T10:33:54.516Z,49.49
2023-05-04T10:34:56.177Z,49.29
2023-05-04T10:35:54.506Z,48.79
2023-05-04T10:36:54.474Z,47.49
2023-05-04T10:37:54.621Z,48.19
2023-05-04T10:38:54.466Z,49.16
2023-05-04T10:39:54.462Z,48.36
2023-05-04T10:40:54.428Z,48.46
2023-05-04T10:41:54.425Z,48.96
2023-05-04T10:42:54.409Z,48.94
2023-05-04T10:43:54.443Z,48.34
2023-05-04T10:44:54.386Z,48.04
2023-05-04T10:45:54.413Z,48.04
2023-05-04T10:46:54.373Z,46.54
2023-05-04T10:47:54.402Z,46.64
2023-05-04T10:48:54.365Z,47.34
2023-05-04T10:49:54.341Z,47.64
2023-05-04T10:50:54.320Z,48.24
2023-05-04T10:51:54.321Z,48.94
2023-05-04T10:52:54.323Z,47.61
2023-05-04T10:53:54.314Z,47.92
2023-05-04T10:54:54.287Z,47.92
2023-05-04T10:55:54.275Z,48.52
2023-05-04T10:56:54.254Z,48.61
2023-05-04T10:57:54.289Z,47.49
2023-05-04T10:58:54.250Z,47.09
2023-05-04T10:59:54.236Z,46.99
2023-05-04T11:00:54.243Z,45.20
2023-05-04T11:01:54.207Z,45.42
2023-05-04T11:02:54.234Z,46.62
2023-05-04T11:03:54.214Z,48.32
2023-05-04T11:04:54.173Z,47.99
2023-05-04T11:05:54.175Z,47.99
2023-05-04T11:06:54.278Z,48.29
2023-05-04T11:07:54.167Z,47.99
2023-05-04T11:08:54.278Z,45.79
2023-05-04T11:09:54.163Z,45.89
2023-05-04T11:10:54.319Z,44.70
2023-05-04T11:11:54.139Z,46.00
2023-05-04T11:12:54.843Z,44.89
2023-05-04T11:13:54.100Z,45.39
2023-05-04T11:14:54.200Z,46.59
2023-05-04T11:15:54.089Z,46.69
2023-05-04T11:16:54.818Z,47.37
2023-05-04T11:17:54.056Z,46.07
2023-05-04T11:18:54.157Z,46.47
2023-05-04T11:19:54.046Z,45.67
2023-05-04T11:20:53.993Z,45.55
2023-05-04T11:21:54.030Z,46.55
2023-05-04T11:22:53.980Z,46.65
2023-05-04T11:23:53.979Z,46.15
2023-05-04T11:24:55.667Z,45.83
2023-05-04T11:25:53.948Z,45.73
2023-05-04T11:26:53.953Z,45.43
2023-05-04T11:27:53.927Z,45.23
2023-05-04T11:28:53.929Z,45.01
2023-05-04T11:29:53.908Z,45.90
2023-05-04T11:30:56.146Z,46.11
2023-05-04T11:31:54.046Z,46.48
2023-05-04T11:32:54.011Z,45.39
2023-05-04T11:33:53.874Z,45.48
2023-05-04T11:34:53.847Z,44.99
2023-05-04T11:35:53.838Z,45.29
2023-05-04T11:36:53.825Z,44.67
2023-05-04T11:37:53.836Z,44.76
2023-05-04T11:38:53.803Z,44.07
2023-05-04T11:39:53.797Z,43.77
2023-05-04T11:40:53.804Z,44.15
2023-05-04T11:41:53.789Z,43.45
2023-05-04T11:42:56.648Z,44.15
2023-05-04T11:43:53.842Z,42.55
2023-05-04T11:44:53.746Z,42.95
2023-05-04T11:45:53.751Z,42.15
2023-05-04T11:46:53.796Z,42.73
2023-05-04T11:47:53.769Z,41.44
2023-05-04T11:48:53.692Z,42.23
2023-05-04T11:49:53.694Z,43.23
2023-05-04T11:50:53.674Z,42.61
2023-05-04T11:51:53.685Z,41.61
2023-05-04T11:52:53.656Z,42.29
2023-05-04T11:53:53.651Z,41.00
2023-05-04T11:54:55.688Z,40.60
2023-05-04T11:55:53.632Z,41.60
2023-05-04T11:56:53.616Z,40.80
2023-05-04T11:57:53.602Z,40.48
2023-05-04T11:58:53.585Z,39.89
2023-05-04T11:59:53.590Z,41.08
2023-05-04T12:00:55.363Z,41.17
2023-05-04T12:01:53.565Z,40.16
2023-05-04T12:02:53.639Z,40.16
2023-05-04T12:03:54.345Z,40.76
2023-05-04T12:04:53.563Z,40.54
2023-05-04T12:05:53.603Z,40.24
2023-05-04T12:06:53.497Z,40.24
2023-05-04T12:07:53.491Z,40.92
2023-05-04T12:08:53.583Z,39.73
2023-05-04T12:09:53.471Z,40.11
2023-05-04T12:10:53.456Z,38.32
2023-05-04T12:11:53.492Z,37.72
2023-05-04T12:12:53.585Z,37.92
2023-05-04T12:13:53.427Z,39.39
2023-05-04T12:14:53.427Z,39.49
2023-05-04T12:15:53.426Z,39.87
2023-05-04T12:16:53.422Z,39.25
2023-05-04T12:17:53.405Z,38.84
2023-05-04T12:18:53.371Z,39.12
2023-05-04T12:19:53.368Z,38.21
2023-05-04T12:20:53.348Z,38.39
2023-05-04T12:21:53.490Z,37.87
2023-05-04T12:22:53.327Z,37.24
2023-05-04T12:23:53.325Z,37.03
2023-05-04T12:24:53.315Z,35.89
2023-05-04T12:25:58.224Z,34.66
2023-05-04T12:26:54.296Z,33.34
2023-05-04T12:27:53.302Z,33.00
2023-05-04T12:28:53.261Z,32.06
2023-05-04T12:29:53.262Z,31.14
2023-05-04T12:30:53.240Z,29.45
2023-05-04T12:31:53.313Z,29.22
2023-05-04T12:32:53.276Z,28.69
2023-05-04T12:33:53.213Z,28.57
2023-05-04T12:34:53.208Z,28.15
2023-05-04T12:35:53.191Z,27.93
2023-05-04T12:36:53.188Z,27.33
2023-05-04T12:37:53.171Z,26.86
2023-05-04T12:38:53.159Z,26.39
2023-05-04T12:39:53.147Z,26.76
2023-05-04T12:40:53.142Z,27.31
2023-05-04T12:41:53.127Z,27.07
2023-05-04T12:42:53.125Z,26.37
2023-05-04T12:43:53.102Z,25.84
2023-05-04T12:44:53.102Z,25.34
2023-05-04T12:45:53.240Z,25.40
2023-05-04T12:46:53.082Z,24.43
2023-05-04T12:47:53.119Z,23.76
2023-05-04T12:48:53.057Z,23.10
2023-05-04T12:49:53.045Z,23.29
2023-05-04T12:50:53.061Z,22.89
2023-05-04T12:51:53.014Z,23.28
2023-05-04T12:52:53.092Z,23.47